createdAt,value
2023-04-28T00:00:47.422Z,4.18
2023-04-28T00:02:50.985Z,3.83
2023-04-28T00:05:05.664Z,4.18
2023-04-28T00:07:11.500Z,4.05
2023-04-28T00:09:14.797Z,3.90
2023-04-28T00:11:18.192Z,3.67
2023-04-28T00:13:23.042Z,3.70
2023-04-28T00:15:26.637Z,3.85
2023-04-28T00:17:32.005Z,3.53
2023-04-28T00:19:36.346Z,3.63
2023-04-28T00:21:39.981Z,3.63
2023-04-28T00:23:43.795Z,3.30
2023-04-28T00:25:54.801Z,3.83
2023-04-28T00:27:58.279Z,3.85
2023-04-28T00:30:01.706Z,4.00
2023-04-28T00:32:05.711Z,4.05
2023-04-28T00:34:14.794Z,4.20
2023-04-28T00:36:21.144Z,3.45
2023-04-28T00:38:25.636Z,4.03
2023-04-28T00:40:37.784Z,4.03
2023-04-28T00:42:41.565Z,4.03
2023-04-28T00:44:45.296Z,3.78
2023-04-28T00:46:48.845Z,3.65
2023-04-28T00:48:52.236Z,3.65
2023-04-28T00:50:57.182Z,3.40
2023-04-28T00:53:00.742Z,4.13
2023-04-28T00:55:04.373Z,3.80
2023-04-28T00:57:08.833Z,4.07
2023-04-28T00:59:12.765Z,3.40
2023-04-28T01:01:16.377Z,3.72
2023-04-28T01:03:20.297Z,3.67
2023-04-28T01:05:23.805Z,3.50
2023-04-28T01:07:31.479Z,3.78
2023-04-28T01:09:35.084Z,4.22
2023-04-28T01:11:38.792Z,4.05
2023-04-28T01:13:42.185Z,3.95
2023-04-28T01:15:45.644Z,4.13
2023-04-28T01:17:50.079Z,4.28
2023-04-28T01:19:54.242Z,3.72
2023-04-28T01:22:00.720Z,3.72
2023-04-28T01:24:08.844Z,3.90
2023-04-28T01:26:15.086Z,3.75
2023-04-28T01:28:18.726Z,4.05
2023-04-28T01:30:22.405Z,3.63
2023-04-28T01:40:17.219Z,3.45
2023-04-28T01:42:20.670Z,4.10
2023-04-28T01:44:24.237Z,4.20
2023-04-28T01:46:39.194Z,4.00
2023-04-28T01:48:42.778Z,4.30
2023-04-28T01:50:46.601Z,3.58
2023-04-28T01:52:50.097Z,4.13
2023-04-28T01:54:53.808Z,3.85
2023-04-28T01:56:58.844Z,3.92
2023-04-28T01:59:02.163Z,4.32
2023-04-28T02:01:06.649Z,4.35
2023-04-28T02:03:10.447Z,3.95
2023-04-28T02:06:09.984Z,3.38
2023-04-28T02:08:13.549Z,4.30
2023-04-28T02:10:19.881Z,3.67
2023-04-28T02:12:24.785Z,4.28
2023-04-28T02:14:28.386Z,4.13
2023-04-28T02:16:33.363Z,4.38
2023-04-28T02:18:37.265Z,4.05
2023-04-28T02:20:42.655Z,3.83
2023-04-28T02:22:46.061Z,4.00
2023-04-28T02:24:49.695Z,4.30
2023-04-28T02:26:59.040Z,4.40
2023-04-28T02:29:04.872Z,4.15
2023-04-28T02:31:08.988Z,4.30
2023-04-28T02:33:12.818Z,3.63
2023-04-28T02:35:16.674Z,4.25
2023-04-28T02:37:20.119Z,4.57
2023-04-28T02:39:27.258Z,4.25
2023-04-28T02:41:31.379Z,4.78
2023-04-28T02:43:35.164Z,4.70
2023-04-28T02:45:40.523Z,4.63
2023-04-28T02:47:44.174Z,4.32
2023-04-28T02:49:47.527Z,4.70
2023-04-28T02:51:50.881Z,4.38
2023-04-28T02:53:54.643Z,4.45
2023-04-28T02:55:57.259Z,4.18
2023-04-28T02:58:00.859Z,4.72
2023-04-28T03:00:05.711Z,4.60
2023-04-28T03:02:10.718Z,5.10
2023-04-28T03:04:14.412Z,4.05
2023-04-28T03:06:18.031Z,4.60
2023-04-28T03:09:16.080Z,4.43
2023-04-28T03:11:19.710Z,4.78
2023-04-28T03:13:23.228Z,4.75
2023-04-28T03:15:26.866Z,4.63
2023-04-28T03:17:32.193Z,4.88
2023-04-28T03:19:35.716Z,5.15
2023-04-28T03:21:39.345Z,5.13
2023-04-28T03:23:42.917Z,5.43
2023-04-28T03:25:46.489Z,5.35
2023-04-28T03:27:50.184Z,5.10
2023-04-28T03:29:53.854Z,4.68
2023-04-28T03:31:57.670Z,5.20
2023-04-28T03:34:50.854Z,4.97
2023-04-28T03:36:55.876Z,4.88
2023-04-28T03:38:59.394Z,5.25
2023-04-28T03:41:03.202Z,5.45
2023-04-28T03:43:06.848Z,6.13
2023-04-28T03:45:11.539Z,4.90
2023-04-28T03:47:15.176Z,5.30
2023-04-28T03:49:19.004Z,5.13
2023-04-28T03:51:36.029Z,5.60
2023-04-28T03:53:41.360Z,4.93
2023-04-28T03:55:45.001Z,5.72
2023-04-28T03:57:48.829Z,5.43
2023-04-28T03:59:52.449Z,5.60
2023-04-28T04:02:24.240Z,5.20
2023-04-28T04:04:28.371Z,5.75
2023-04-28T04:06:32.541Z,5.68
2023-04-28T04:08:36.444Z,5.53
2023-04-28T04:10:41.345Z,6.35
2023-04-28T04:12:45.133Z,5.80
2023-04-28T04:14:49.009Z,5.68
2023-04-28T04:16:55.626Z,5.80
2023-04-28T04:18:59.160Z,6.35
2023-04-28T04:21:03.143Z,6.22
2023-04-28T04:23:06.867Z,6.22
2023-04-28T04:25:10.927Z,6.97
2023-04-28T04:27:17.304Z,7.13
2023-04-28T04:29:20.828Z,6.45
2023-04-28T04:31:24.717Z,6.35
2023-04-28T04:33:28.266Z,6.70
2023-04-28T04:35:32.102Z,6.35
2023-04-28T04:37:35.916Z,6.60
2023-04-28T04:39:39.286Z,6.13
2023-04-28T04:41:49.302Z,7.15
2023-04-28T04:43:54.484Z,7.15
2023-04-28T04:45:58.121Z,7.22
2023-04-28T04:48:01.751Z,6.93
2023-04-28T04:50:08.904Z,6.53
2023-04-28T04:52:12.786Z,6.75
2023-04-28T04:54:16.959Z,6.63
2023-04-28T04:56:20.758Z,6.30
2023-04-28T04:58:24.607Z,6.95
2023-04-28T05:00:29.513Z,6.97
2023-04-28T05:02:33.388Z,6.45
2023-04-28T05:04:37.406Z,6.88
2023-04-28T05:06:41.489Z,6.97
2023-04-28T05:08:50.928Z,7.10
2023-04-28T05:10:54.354Z,7.32
2023-04-28T05:12:57.853Z,7.32
2023-04-28T05:15:01.597Z,7.40
2023-04-28T05:17:06.915Z,7.22
2023-04-28T05:19:10.939Z,7.65
2023-04-28T05:21:17.428Z,7.95
2023-04-28T05:23:21.167Z,7.60
2023-04-28T05:25:24.686Z,8.00
2023-04-28T05:27:28.384Z,7.75
2023-04-28T05:29:32.365Z,8.48
2023-04-28T05:31:36.267Z,7.65
2023-04-28T05:33:41.638Z,7.70
2023-04-28T05:35:45.400Z,7.55
2023-04-28T05:37:50.531Z,7.38
2023-04-28T05:39:54.118Z,7.93
2023-04-28T05:41:58.831Z,7.82
2023-04-28T05:44:02.442Z,8.07
2023-04-28T05:46:12.074Z,8.25
2023-04-28T05:48:22.215Z,8.40
2023-04-28T05:50:27.435Z,8.13
2023-04-28T05:52:30.970Z,7.85
2023-04-28T05:54:35.970Z,7.28
2023-04-28T05:57:17.176Z,8.13
2023-04-28T05:59:20.786Z,7.85
2023-04-28T06:01:24.990Z,7.90
2023-04-28T06:03:29.460Z,8.52
2023-04-28T06:05:35.260Z,8.32
2023-04-28T06:07:38.959Z,8.38
2023-04-28T06:09:42.736Z,8.43
2023-04-28T06:11:46.509Z,8.32
2023-04-28T06:13:57.452Z,8.40
2023-04-28T06:16:09.764Z,9.20
2023-04-28T06:18:13.955Z,9.23
2023-04-28T06:20:20.637Z,9.25
2023-04-28T06:24:57.053Z,8.38
2023-04-28T06:27:01.099Z,8.88
2023-04-28T06:29:06.739Z,8.73
2023-04-28T06:31:10.957Z,9.63
2023-04-28T06:33:14.775Z,9.75
2023-04-28T06:35:27.821Z,10.18
2023-04-28T06:37:34.836Z,8.85
2023-04-28T06:39:40.716Z,9.65
2023-04-28T06:41:44.797Z,9.50
2023-04-28T06:43:51.034Z,9.68
2023-04-28T06:45:54.970Z,9.35
2023-04-28T06:48:00.083Z,9.15
2023-04-28T06:50:04.113Z,8.95
2023-04-28T06:52:09.096Z,9.82
2023-04-28T06:54:14.504Z,9.30
2023-04-28T06:56:18.120Z,8.88
2023-04-28T06:58:22.391Z,9.05
2023-04-28T07:00:26.407Z,9.35
2023-04-28T07:02:37.173Z,9.65
2023-04-28T07:04:41.220Z,9.10
2023-04-28T07:06:45.068Z,9.50
2023-04-28T07:08:48.872Z,9.45
2023-04-28T07:10:54.091Z,9.60
2023-04-28T07:12:59.314Z,9.60
2023-04-28T07:15:03.114Z,9.95
2023-04-28T07:17:06.892Z,10.30
2023-04-28T07:19:10.562Z,9.35
2023-04-28T07:21:14.212Z,9.77
2023-04-28T07:23:18.204Z,10.00
2023-04-28T07:25:22.249Z,11.05
2023-04-28T07:27:27.369Z,9.93
2023-04-28T07:29:34.258Z,9.68
2023-04-28T07:31:37.927Z,10.00
2023-04-28T07:33:41.775Z,10.95
2023-04-28T07:35:45.247Z,9.75
2023-04-28T07:37:53.081Z,10.15
2023-04-28T07:40:04.705Z,10.32
2023-04-28T07:42:17.402Z,10.20
2023-04-28T07:44:23.090Z,9.90
2023-04-28T07:46:27.244Z,10.13
2023-04-28T07:48:32.534Z,10.82
2023-04-28T07:50:36.160Z,10.43
2023-04-28T07:52:46.942Z,10.20
2023-04-28T07:54:50.784Z,10.27
2023-04-28T07:56:55.203Z,10.20
2023-04-28T07:58:59.226Z,10.02
2023-04-28T08:01:04.478Z,10.73
2023-04-28T08:03:08.579Z,10.52
2023-04-28T08:05:12.695Z,10.88
2023-04-28T08:07:16.715Z,10.90
2023-04-28T08:09:23.309Z,10.15
2023-04-28T08:11:27.041Z,10.82
2023-04-28T08:13:30.971Z,10.80
2023-04-28T08:15:35.045Z,10.70
2023-04-28T08:17:40.622Z,9.90
2023-04-28T08:19:46.500Z,10.73
2023-04-28T08:21:50.339Z,10.32
2023-04-28T08:23:54.284Z,10.77
2023-04-28T08:25:58.318Z,11.07
2023-04-28T08:28:03.541Z,10.90
2023-04-28T08:30:08.719Z,10.43
2023-04-28T08:32:12.204Z,10.25
2023-04-28T08:34:17.342Z,10.45
2023-04-28T08:36:21.437Z,10.38
2023-04-28T08:38:25.666Z,10.80
2023-04-28T08:40:31.578Z,11.80
2023-04-28T08:42:35.308Z,11.93
2023-04-28T08:44:39.925Z,12.63
2023-04-28T08:46:44.427Z,12.82
2023-04-28T08:48:49.486Z,12.88
2023-04-28T08:50:55.185Z,12.38
2023-04-28T08:52:58.952Z,12.85
2023-04-28T08:55:03.361Z,12.27
2023-04-28T08:57:10.285Z,12.43
2023-04-28T08:59:14.127Z,12.52
2023-04-28T09:01:18.036Z,12.73
2023-04-28T09:03:22.159Z,12.75
2023-04-28T09:05:26.332Z,12.55
2023-04-28T09:07:31.768Z,12.70
2023-04-28T09:09:37.141Z,13.05
2023-04-28T09:11:53.917Z,13.20
2023-04-28T09:14:01.634Z,13.25
2023-04-28T09:16:06.468Z,11.80
2023-04-28T09:18:10.195Z,13.80
2023-04-28T09:20:21.724Z,12.38
2023-04-28T09:22:31.082Z,13.32
2023-04-28T09:24:35.598Z,15.05
2023-04-28T09:26:53.517Z,14.05
2023-04-28T09:29:13.157Z,15.88
2023-04-28T09:31:28.079Z,14.18
2023-04-28T09:33:32.156Z,16.13
2023-04-28T09:35:42.151Z,15.93
2023-04-28T09:37:47.478Z,18.02
2023-04-28T09:39:52.317Z,18.25
2023-04-28T09:41:56.087Z,25.83
2023-04-28T09:44:11.008Z,18.13
2023-04-28T09:46:14.892Z,18.25
2023-04-28T09:48:19.336Z,50.03
2023-04-28T09:50:23.147Z,19.23
2023-04-28T09:52:27.193Z,32.70
2023-04-28T09:54:32.623Z,38.03
2023-04-28T09:56:40.850Z,27.17
2023-04-28T09:58:47.224Z,20.90
2023-04-28T10:00:54.202Z,19.73
2023-04-28T10:02:58.124Z,20.00
2023-04-28T10:05:02.427Z,19.73
2023-04-28T10:07:08.608Z,19.67
2023-04-28T10:09:13.947Z,19.80
2023-04-28T10:11:21.339Z,19.50
2023-04-28T10:13:25.205Z,20.40
2023-04-28T10:15:28.949Z,19.08
2023-04-28T10:17:33.605Z,18.90
2023-04-28T10:19:37.664Z,19.83
2023-04-28T10:21:43.480Z,17.00
2023-04-28T10:24:10.413Z,19.15
2023-04-28T10:26:15.509Z,19.20
2023-04-28T10:28:20.752Z,18.50
2023-04-28T10:30:28.784Z,18.77
2023-04-28T10:32:33.650Z,18.92
2023-04-28T10:34:37.381Z,17.88
2023-04-28T10:36:51.197Z,18.92
2023-04-28T10:39:13.593Z,17.10
2023-04-28T10:41:35.301Z,18.85
2023-04-28T10:43:41.007Z,17.90
2023-04-28T10:46:11.889Z,17.58
2023-04-28T10:48:15.391Z,16.58
2023-04-28T10:50:21.901Z,16.55
2023-04-28T10:52:51.832Z,17.00
2023-04-28T10:55:29.079Z,16.77
2023-04-28T10:57:33.196Z,16.73
2023-04-28T10:59:38.214Z,17.25
2023-04-28T11:01:42.765Z,15.35
2023-04-28T11:03:52.284Z,14.65
2023-04-28T11:06:21.458Z,15.95
2023-04-28T11:08:34.622Z,16.48
2023-04-28T11:11:11.176Z,16.08
2023-04-28T11:13:34.790Z,16.50
2023-04-28T11:15:40.094Z,16.10
2023-04-28T11:17:44.017Z,17.73
2023-04-28T11:19:48.696Z,17.05
2023-04-28T11:21:53.628Z,16.15
2023-04-28T11:23:57.735Z,16.98
2023-04-28T11:26:01.520Z,18.17
2023-04-28T11:28:07.248Z,15.30
2023-04-28T11:30:22.416Z,15.27
2023-04-28T11:32:31.026Z,15.25
2023-04-28T11:34:34.786Z,15.80
2023-04-28T11:36:38.900Z,16.38
2023-04-28T11:38:45.765Z,17.15
2023-04-28T11:40:58.829Z,16.83
2023-04-28T11:43:04.221Z,16.50
2023-04-28T11:45:09.290Z,15.48
2023-04-28T11:47:12.833Z,15.75
2023-04-28T11:49:18.056Z,14.30
2023-04-28T11:51:36.329Z,15.80
2023-04-28T11:53:43.811Z,15.32
2023-04-28T11:55:47.610Z,15.40
2023-04-28T11:57:51.077Z,15.95
2023-04-28T11:59:54.640Z,15.60
2023-04-28T12:01:59.748Z,14.63
2023-04-28T12:04:04.011Z,15.15
2023-04-28T12:06:09.497Z,15.40
2023-04-28T12:08:13.405Z,14.73
2023-04-28T12:10:17.844Z,14.23
2023-04-28T12:12:45.202Z,14.38
2023-04-28T12:14:57.490Z,15.38
2023-04-28T12:17:01.540Z,14.43
2023-04-28T12:19:08.335Z,15.40
2023-04-28T12:21:23.688Z,15.65
2023-04-28T12:23:33.725Z,13.68
2023-04-28T12:25:45.135Z,13.80
2023-04-28T12:28:02.942Z,14.32
2023-04-28T12:30:18.655Z,13.60
2023-04-28T12:32:24.064Z,13.45
2023-04-28T12:34:29.768Z,11.88
2023-04-28T12:36:35.593Z,11.95
2023-04-28T12:38:39.273Z,11.40
2023-04-28T12:40:43.204Z,11.40
2023-04-28T12:42:47.402Z,11.38
2023-04-28T12:44:51.248Z,11.77
2023-04-28T12:46:55.395Z,11.25
2023-04-28T12:48:59.141Z,11.48
2023-04-28T12:51:03.548Z,10.68
2023-04-28T12:53:08.716Z,9.63
2023-04-28T12:55:12.648Z,8.50
2023-04-28T12:57:16.359Z,9.65
2023-04-28T12:59:20.161Z,7.72
2023-04-28T13:01:25.338Z,8.15
2023-04-28T13:03:29.759Z,9.68
2023-04-28T13:05:35.234Z,9.80
2023-04-28T13:07:39.125Z,7.90
2023-04-28T13:09:44.517Z,9.07
2023-04-28T13:11:49.798Z,8.73
2023-04-28T13:13:54.543Z,10.40
2023-04-28T13:15:58.899Z,9.63
2023-04-28T13:18:02.960Z,8.82
2023-04-28T13:20:07.950Z,8.73
2023-04-28T13:22:12.568Z,9.35
2023-04-28T13:24:16.478Z,9.02
2023-04-28T13:26:22.493Z,8.98
2023-04-28T13:28:26.469Z,8.60
2023-04-28T13:30:29.937Z,8.32
2023-04-28T13:32:33.990Z,9.23
2023-04-28T13:34:38.757Z,8.90
2023-04-28T13:36:42.325Z,8.00
2023-04-28T13:38:49.063Z,8.38
2023-04-28T13:40:52.675Z,7.65
2023-04-28T13:42:58.078Z,8.15
2023-04-28T13:45:01.946Z,8.07
2023-04-28T13:47:06.860Z,7.75
2023-04-28T13:49:11.642Z,7.40
2023-04-28T13:51:15.794Z,6.97
2023-04-28T13:53:19.411Z,7.05
2023-04-28T13:55:27.897Z,6.50
2023-04-28T13:57:32.126Z,7.50
2023-04-28T13:59:37.815Z,7.05
2023-04-28T14:01:42.116Z,6.88
2023-04-28T14:03:46.079Z,6.80
2023-04-28T14:05:50.190Z,7.55
2023-04-28T14:07:54.902Z,7.43
2023-04-28T14:09:59.095Z,7.38
2023-04-28T14:12:03.065Z,8.73
2023-04-28T14:14:06.761Z,8.90
2023-04-28T14:16:11.961Z,8.38
2023-04-28T14:18:16.482Z,9.52
2023-04-28T14:20:20.710Z,9.60
2023-04-28T14:22:25.036Z,9.50
2023-04-28T14:24:28.855Z,10.25
2023-04-28T14:26:32.920Z,10.77
2023-04-28T14:28:37.701Z,10.90
2023-04-28T14:30:41.996Z,10.35
2023-04-28T14:32:47.353Z,11.07
2023-04-28T14:34:51.300Z,10.82
2023-04-28T14:36:54.765Z,9.90
2023-04-28T14:38:58.861Z,10.00
2023-04-28T14:41:02.923Z,9.48
2023-04-28T14:43:06.747Z,7.70
2023-04-28T14:45:11.670Z,8.23
2023-04-28T14:47:16.159Z,7.50
2023-04-28T14:49:21.645Z,6.63
2023-04-28T14:51:26.416Z,6.80
2023-04-28T14:53:30.685Z,6.28
2023-04-28T14:55:34.382Z,5.70
2023-04-28T14:57:38.282Z,5.25
2023-04-28T14:59:44.455Z,5.45
2023-04-28T15:01:50.806Z,4.82
2023-04-28T15:03:54.715Z,5.43
2023-04-28T15:06:01.003Z,4.80
2023-04-28T15:08:04.949Z,4.35
2023-04-28T15:10:09.742Z,4.07
2023-04-28T15:12:13.824Z,4.68
2023-04-28T15:14:17.611Z,5.38
2023-04-28T15:16:22.908Z,5.30
2023-04-28T15:18:28.074Z,5.07
2023-04-28T15:20:33.153Z,5.15
2023-04-28T15:22:38.862Z,5.20
2023-04-28T15:24:42.972Z,4.57
2023-04-28T15:26:46.715Z,4.43
2023-04-28T15:28:50.419Z,4.00
2023-04-28T15:30:54.158Z,4.10
2023-04-28T15:32:59.312Z,3.97
2023-04-28T15:35:03.316Z,3.63
2023-04-28T15:37:10.181Z,3.63
2023-04-28T15:39:16.352Z,3.92
2023-04-28T15:41:20.435Z,3.65
2023-04-28T15:43:25.450Z,3.97
2023-04-28T15:45:28.917Z,4.00
2023-04-28T15:47:33.541Z,4.00
2023-04-28T15:49:37.731Z,3.70
2023-04-28T15:51:41.422Z,3.92
2023-04-28T15:53:45.077Z,4.10
2023-04-28T15:55:50.382Z,4.00
2023-04-28T15:57:53.970Z,4.03
2023-04-28T15:59:57.757Z,4.40
2023-04-28T16:02:01.884Z,4.57
2023-04-28T16:04:06.158Z,3.92
2023-04-28T16:06:10.259Z,4.00
2023-04-28T16:08:14.448Z,4.72
2023-04-28T16:10:18.376Z,4.50
2023-04-28T16:12:23.712Z,4.25
2023-04-28T16:14:27.593Z,4.00
2023-04-28T16:16:31.343Z,4.10
2023-04-28T16:18:35.358Z,4.20
2023-04-28T16:20:39.241Z,3.80
2023-04-28T16:22:43.345Z,3.97
2023-04-28T16:24:46.923Z,4.25
2023-04-28T16:26:51.496Z,4.68
2023-04-28T16:28:56.704Z,4.65
2023-04-28T16:31:00.658Z,4.70
2023-04-28T16:33:05.233Z,5.10
2023-04-28T16:35:14.474Z,4.75
2023-04-28T16:37:19.032Z,4.80
2023-04-28T16:39:22.830Z,5.00
2023-04-28T16:41:26.916Z,5.20
2023-04-28T16:43:32.247Z,4.85
2023-04-28T16:45:37.681Z,5.30
2023-04-28T16:47:43.612Z,4.22
2023-04-28T16:49:47.975Z,4.32
2023-04-28T16:52:01.855Z,4.55
2023-04-28T16:54:05.607Z,4.35
2023-04-28T16:56:10.824Z,4.78
2023-04-28T16:58:14.837Z,4.97
2023-04-28T17:00:19.781Z,4.90
2023-04-28T17:02:26.352Z,4.90
2023-04-28T17:04:30.210Z,4.80
2023-04-28T17:06:34.075Z,4.60
2023-04-28T17:08:37.915Z,4.45
2023-04-28T17:10:41.628Z,4.72
2023-04-28T17:12:45.898Z,4.72
2023-04-28T17:14:51.167Z,4.72
2023-04-28T17:16:55.096Z,5.40
2023-04-28T17:19:00.207Z,5.20
2023-04-28T17:21:03.971Z,4.88
2023-04-28T17:23:07.510Z,5.18
2023-04-28T17:25:12.561Z,5.63
2023-04-28T17:27:16.257Z,5.55
2023-04-28T17:29:19.897Z,5.45
2023-04-28T17:31:24.054Z,5.10
2023-04-28T17:33:27.857Z,5.30
2023-04-28T17:35:33.102Z,5.30
2023-04-28T17:37:37.506Z,5.38
2023-04-28T17:39:41.015Z,5.85
2023-04-28T17:41:45.353Z,5.43
2023-04-28T17:43:49.289Z,6.18
2023-04-28T17:45:54.369Z,6.15
2023-04-28T17:48:00.831Z,6.15
2023-04-28T17:50:06.886Z,5.43
2023-04-28T17:52:12.154Z,5.75
2023-04-28T17:54:15.868Z,6.28
2023-04-28T17:56:19.826Z,6.35
2023-04-28T17:58:23.419Z,6.43
2023-04-28T18:00:27.142Z,6.10
2023-04-28T18:02:31.838Z,5.60
2023-04-28T18:04:35.425Z,6.32
2023-04-28T18:06:39.429Z,6.10
2023-04-28T18:08:44.303Z,6.05
2023-04-28T18:10:48.416Z,5.85
2023-04-28T18:12:53.630Z,5.78
2023-04-28T18:14:57.989Z,6.13
2023-04-28T18:17:01.636Z,5.70
2023-04-28T18:19:05.456Z,5.65
2023-04-28T18:21:11.675Z,6.20
2023-04-28T18:23:15.705Z,5.95
2023-04-28T18:25:20.853Z,5.50
2023-04-28T18:27:24.497Z,5.50
2023-04-28T18:29:28.455Z,5.65
2023-04-28T18:31:32.588Z,5.78
2023-04-28T18:33:36.326Z,5.57
2023-04-28T18:35:40.190Z,5.78
2023-04-28T18:37:45.352Z,5.50
2023-04-28T18:39:49.160Z,5.75
2023-04-28T18:41:54.443Z,6.22
2023-04-28T18:43:58.665Z,5.65
2023-04-28T18:46:04.573Z,5.63
2023-04-28T18:48:08.512Z,5.40
2023-04-28T18:50:12.505Z,5.43
2023-04-28T18:52:16.625Z,5.45
2023-04-28T18:54:20.383Z,5.90
2023-04-28T18:56:24.743Z,5.32
2023-04-28T18:58:29.993Z,6.05
2023-04-28T19:00:37.010Z,5.60
2023-04-28T19:02:41.804Z,5.38
2023-04-28T19:04:47.092Z,5.13
2023-04-28T19:06:51.061Z,5.63
2023-04-28T19:08:54.690Z,5.68
2023-04-28T19:10:59.674Z,6.10
2023-04-28T19:13:04.415Z,5.50
2023-04-28T19:15:10.224Z,5.20
2023-04-28T19:17:16.964Z,4.82
2023-04-28T19:19:21.060Z,5.40
2023-04-28T19:21:25.608Z,5.00
2023-04-28T19:23:29.642Z,4.43
2023-04-28T19:25:33.988Z,4.50
2023-04-28T19:27:38.440Z,4.43
2023-04-28T19:29:42.072Z,4.70
2023-04-28T19:31:49.066Z,4.55
2023-04-28T19:33:52.537Z,4.22
2023-04-28T19:35:56.098Z,4.40
2023-04-28T19:37:59.603Z,4.10
2023-04-28T19:40:05.066Z,4.35
2023-04-28T19:42:09.137Z,5.28
2023-04-28T19:44:12.809Z,4.82
2023-04-28T19:46:17.093Z,5.15
2023-04-28T19:48:22.086Z,5.18
2023-04-28T19:50:25.794Z,4.97
2023-04-28T19:52:30.122Z,5.15
2023-04-28T19:54:33.824Z,5.05
2023-04-28T19:56:37.472Z,5.07
2023-04-28T19:58:41.441Z,3.90
2023-04-28T20:00:45.410Z,4.80
2023-04-28T20:02:49.555Z,4.45
2023-04-28T20:04:56.743Z,5.25
2023-04-28T20:07:00.217Z,5.20
2023-04-28T20:09:04.018Z,4.90
2023-04-28T20:11:07.965Z,4.32
2023-04-28T20:13:11.992Z,3.60
2023-04-28T20:15:16.998Z,3.60
2023-04-28T20:17:21.058Z,3.58
2023-04-28T20:19:25.295Z,3.50
2023-04-28T20:21:31.854Z,3.50
2023-04-28T20:23:36.939Z,3.10
2023-04-28T20:25:41.429Z,2.70
2023-04-28T20:27:47.061Z,3.13
2023-04-28T20:29:51.013Z,2.22
2023-04-28T20:31:55.399Z,2.08
2023-04-28T20:33:58.951Z,2.13
2023-04-28T20:36:02.783Z,1.95
2023-04-28T20:38:07.809Z,1.77
2023-04-28T20:40:12.339Z,1.50
2023-04-28T20:42:16.070Z,1.30
2023-04-28T20:44:19.889Z,1.50
2023-04-28T20:46:23.622Z,1.77
2023-04-28T20:48:29.147Z,1.50
2023-04-28T20:50:33.878Z,1.58
2023-04-28T20:52:38.003Z,1.50
2023-04-28T20:54:44.060Z,1.50
2023-04-28T20:56:47.954Z,1.77
2023-04-28T20:58:51.455Z,1.45
2023-04-28T21:00:54.962Z,1.80
2023-04-28T21:03:04.420Z,1.48
2023-04-28T21:05:08.856Z,1.73
2023-04-28T21:07:12.496Z,1.50
2023-04-28T21:09:16.352Z,1.77
2023-04-28T21:11:21.859Z,1.90
2023-04-28T21:13:25.591Z,1.77
2023-04-28T21:15:29.320Z,1.80
2023-04-28T21:17:33.036Z,1.83
2023-04-28T21:19:37.256Z,1.63
2023-04-28T21:21:41.230Z,1.60
2023-04-28T21:23:45.903Z,1.45
2023-04-28T21:25:49.612Z,1.80
2023-04-28T21:27:54.513Z,1.60
2023-04-28T21:29:58.442Z,1.50
2023-04-28T21:32:02.478Z,1.67
2023-04-28T21:34:06.714Z,1.60
2023-04-28T21:36:10.815Z,1.70
2023-04-28T21:38:14.501Z,1.50
2023-04-28T21:40:19.694Z,1.67
2023-04-28T21:42:23.430Z,1.60
2023-04-28T21:44:28.561Z,1.20
2023-04-28T21:46:32.054Z,1.23
2023-04-28T21:48:37.570Z,1.13
2023-04-28T21:50:41.791Z,1.35
2023-04-28T21:52:45.861Z,1.23
2023-04-28T21:54:49.565Z,1.20
2023-04-28T21:56:53.242Z,1.42
2023-04-28T21:58:56.642Z,1.67
2023-04-28T22:01:01.934Z,1.30
2023-04-28T22:03:05.791Z,1.60
2023-04-28T22:05:10.554Z,1.60
2023-04-28T22:07:14.406Z,1.20
2023-04-28T22:09:17.998Z,1.00
2023-04-28T22:11:21.835Z,1.20
2023-04-28T22:13:25.603Z,1.30
2023-04-28T22:15:29.522Z,1.30
2023-04-28T22:17:34.647Z,1.48
2023-04-28T22:19:38.152Z,1.40
2023-04-28T22:21:42.193Z,1.42
2023-04-28T22:23:45.702Z,1.40
2023-04-28T22:25:49.577Z,1.40
2023-04-28T22:27:53.368Z,1.10
2023-04-28T22:29:58.921Z,1.33
2023-04-28T22:32:03.370Z,1.73
2023-04-28T22:34:10.035Z,1.40
2023-04-28T22:36:13.677Z,1.30
2023-04-28T22:38:17.186Z,1.38
2023-04-28T22:40:21.591Z,1.10
2023-04-28T22:42:24.969Z,1.20
2023-04-28T22:44:28.702Z,1.52
2023-04-28T22:46:32.492Z,1.42
2023-04-28T22:48:36.117Z,1.30
2023-04-28T22:50:41.099Z,1.40
2023-04-28T22:52:44.634Z,1.15
2023-04-28T22:54:49.152Z,1.55
2023-04-28T22:56:53.427Z,1.35
2023-04-28T22:58:57.862Z,1.27
2023-04-28T23:01:04.328Z,1.30
2023-04-28T23:03:08.031Z,1.42
2023-04-28T23:05:11.906Z,1.63
2023-04-28T23:07:22.333Z,1.30
2023-04-28T23:09:25.920Z,1.58
2023-04-28T23:11:29.874Z,1.40
2023-04-28T23:13:33.531Z,1.70
2023-04-28T23:15:37.356Z,1.38
2023-04-28T23:17:41.034Z,1.73
2023-04-28T23:19:44.702Z,1.40
2023-04-28T23:21:48.349Z,1.83
2023-04-28T23:23:53.388Z,1.40
2023-04-28T23:25:56.872Z,1.77
2023-04-28T23:28:00.369Z,1.50
2023-04-28T23:30:03.876Z,1.52
2023-04-28T23:32:07.720Z,1.73
2023-04-28T23:34:11.266Z,1.52
2023-04-28T23:36:15.379Z,1.80
2023-04-28T23:38:18.834Z,1.80
2023-04-28T23:40:23.761Z,1.80
2023-04-28T23:42:27.281Z,1.67
2023-04-28T23:44:30.949Z,1.50
2023-04-28T23:46:34.787Z,1.90
2023-04-28T23:48:38.875Z,1.73
2023-04-28T23:50:43.276Z,1.60
2023-04-28T23:52:47.271Z,2.08
2023-04-28T23:54:51.183Z,1.85
2023-04-28T23:57:06.589Z,1.50
2023-04-28T23:59:10.164Z,1.55
